Clipper Titan — C6V2055 — position and weather

sailwx.info

Track history (hours):
 
Tides and Currents Weather Stations Pressure Air Temp Water Temp Dewpoint Dewpoint Depression Visibility Wind Speed Wind Dir Waves Ship Positions

Clipper Titan

Last reported at 2015-May-09 04:33 UTC. Time now 2015-May-27 19:54 UTC.
Position N 25°46' W 079°29'.
Warning: this ship's position is 18 days out of date.

; draft 6 m.

Type: Cargo ship. MMSI: 311008200.

Date/timePositionNaut miles runAvg speedWind from/ knotsBaromVisibWave heightAir tempDewpointWater temp
2015-May-09 04:33N 25°46' W 079°29'9 8.7
2015-May-09 03:33N 25°55' W 079°30'9 8.6
2015-May-09 02:33N 26°04' W 079°28'9 8.7
2015-May-09 01:33N 26°12' W 079°25'9 9.1
2015-May-09 00:33N 26°21' W 079°24'40 9.7
2015-May-08 20:26N 27°01' W 079°20'9 9.9
2015-May-08 19:33N 27°09' W 079°19'1010.0
2015-May-08 18:33N 27°19' W 079°18'1010.3
2015-May-08 17:33N 27°30' W 079°17'279 9.3
2015-May-07 11:33N 31°58' W 080°44'1111.4
2015-May-07 10:34N 32°03' W 080°56'9 9.2
2015-May-07 09:33N 32°06' W 081°06'4 3.3
2015-May-07 08:29N 32°09' W 081°09'0 0.0
2015-May-07 07:32N 32°09' W 081°09'0 0.0
2015-May-07 06:32N 32°09' W 081°09'0 0.0
2015-May-07 05:32N 32°09' W 081°09'0 0.0
2015-May-07 04:32N 32°09' W 081°09'0 0.0
2015-May-07 03:32N 32°09' W 081°09'0 0.0
2015-May-07 02:32N 32°09' W 081°09'0 0.0
2015-May-07 01:32N 32°09' W 081°09'0 0.0
2015-May-07 00:32N 32°09' W 081°09'0 0.0
2015-May-06 23:32N 32°09' W 081°09'0 0.0
2015-May-06 22:32N 32°09' W 081°09'0 0.0
2015-May-06 21:32N 32°09' W 081°09'0 0.0
2015-May-06 20:32N 32°09' W 081°09'0 0.0
2015-May-06 19:32N 32°09' W 081°09'0 0.0
2015-May-06 18:32N 32°09' W 081°09'0 0.0
2015-May-06 17:32N 32°09' W 081°09'0 0.0
2015-May-06 16:32N 32°09' W 081°09'0 0.0
2015-May-06 15:32N 32°09' W 081°09'0 0.0
2015-May-06 14:32N 32°09' W 081°09'0 0.0
2015-May-06 13:32N 32°09' W 081°09'0 0.0
2015-May-06 12:32N 32°09' W 081°09'0 0.0
2015-May-06 11:32N 32°09' W 081°09'0 0.0
2015-May-06 10:32N 32°09' W 081°09'0 0.0
2015-May-06 09:32N 32°09' W 081°09'0 0.0
2015-May-06 08:32N 32°09' W 081°09'0 0.0
2015-May-06 07:32N 32°09' W 081°09'0 0.0
2015-May-06 06:32N 32°09' W 081°09'0 0.0
2015-May-06 05:32N 32°09' W 081°09'0 0.0
2015-May-06 04:32N 32°09' W 081°09'0 0.0
2015-May-06 03:32N 32°09' W 081°09'0 0.0
2015-May-06 02:32N 32°09' W 081°09'0 0.0
2015-May-06 01:32N 32°09' W 081°09'0 0.0
2015-May-06 00:32N 32°09' W 081°09'0 0.0
2015-May-05 23:32N 32°09' W 081°09'0 0.0
2015-May-05 22:32N 32°09' W 081°09'0 0.0
2015-May-05 21:32N 32°09' W 081°09'0 0.0
2015-May-05 20:29N 32°09' W 081°09'0 0.0
2015-May-05 19:32N 32°09' W 081°09'0 0.0
2015-May-05 18:32N 32°09' W 081°09'0 0.0
2015-May-05 17:32N 32°09' W 081°09'0 0.0
2015-May-05 16:32N 32°09' W 081°09'0 0.0
2015-May-05 15:32N 32°09' W 081°09'0 0.0
2015-May-05 14:32N 32°09' W 081°09'0 0.0
2015-May-05 13:32N 32°09' W 081°09'0 0.0
2015-May-05 12:32N 32°09' W 081°09'0 0.0
2015-May-05 11:32N 32°09' W 081°09'0 0.0
2015-May-05 10:32N 32°09' W 081°09'0 0.0
2015-May-05 09:29N 32°09' W 081°09'0 0.0
2015-May-05 08:29N 32°09' W 081°09'0 0.0
2015-May-05 07:32N 32°09' W 081°09'0 0.0
2015-May-05 06:32N 32°09' W 081°09'0 0.0
2015-May-05 05:26N 32°09' W 081°09'0 0.0
2015-May-05 04:29N 32°09' W 081°09'0 0.0
2015-May-05 03:32N 32°09' W 081°09'0 0.0
2015-May-05 02:32N 32°09' W 081°09'0 0.0
2015-May-05 01:32N 32°09' W 081°09'0 0.0
2015-May-05 00:32N 32°09' W 081°09'0 0.0
2015-May-04 23:32N 32°09' W 081°09'0 0.0
2015-May-04 22:32N 32°09' W 081°09'0 0.0
2015-May-04 21:32N 32°09' W 081°09'0 0.0
2015-May-04 20:32N 32°09' W 081°09'0 0.0
2015-May-04 19:32N 32°09' W 081°09'0 0.0
2015-May-04 18:32N 32°09' W 081°09'0 0.0
2015-May-04 17:32N 32°09' W 081°09'0 0.0
2015-May-04 16:32N 32°09' W 081°09'0 0.0
2015-May-04 15:32N 32°09' W 081°09'0 0.0
2015-May-04 14:32N 32°09' W 081°09'0 0.0
2015-May-04 13:32N 32°09' W 081°09'0 0.0
2015-May-04 12:32N 32°09' W 081°09'0 0.0
2015-May-04 11:32N 32°09' W 081°09'0 0.0
2015-May-04 10:32N 32°09' W 081°09'0 0.0
2015-May-04 09:32N 32°09' W 081°09'1 1.4
2015-May-04 08:34N 32°07' W 081°08'7 6.5
2015-May-04 07:33N 32°06' W 081°00'9 9.1
2015-May-04 06:33N 32°02' W 080°51'7 6.6
2015-May-04 05:33N 32°01' W 080°43'0 0.4
2015-May-04 04:33N 32°01' W 080°43'0 0.0
2015-May-04 03:33N 32°01' W 080°43'0 0.1
2015-May-04 02:33N 32°01' W 080°43'0 0.1
2015-May-04 01:33N 32°01' W 080°43'0 0.1
2015-May-04 00:33N 32°01' W 080°43'0 0.0
2015-May-03 23:33N 32°01' W 080°43'0 0.0
2015-May-03 22:33N 32°01' W 080°43'0 0.0
2015-May-03 21:33N 32°01' W 080°43'0 0.0
2015-May-03 20:33N 32°01' W 080°43'0 0.0
2015-May-03 19:30N 32°01' W 080°43'0 0.1
2015-May-03 18:33N 32°01' W 080°43'0 0.1
2015-May-03 17:33N 32°01' W 080°43'0 0.0
2015-May-03 16:33N 32°01' W 080°43'0 0.0
2015-May-03 15:33N 32°01' W 080°43'0 0.0
2015-May-03 14:33N 32°01' W 080°43'0 0.1
2015-May-03 13:30N 32°01' W 080°43'0 0.1
2015-May-03 12:33N 32°01' W 080°43'0 0.0
2015-May-03 11:33N 32°01' W 080°43'0 0.0
2015-May-03 10:33N 32°01' W 080°43'0 0.0
2015-May-03 09:33N 32°01' W 080°43'0 0.0
2015-May-03 08:33N 32°01' W 080°43'0 0.2
2015-May-03 07:33N 32°01' W 080°43'0 0.1
2015-May-03 06:33N 32°01' W 080°43'0 0.0
2015-May-03 05:33N 32°01' W 080°43'0 0.0
2015-May-03 04:33N 32°01' W 080°43'0 0.0
2015-May-03 03:33N 32°01' W 080°43'0 0.0
2015-May-03 02:33N 32°01' W 080°43'0 0.0
2015-May-03 01:33N 32°01' W 080°43'1 0.7
2015-May-03 00:33N 32°01' W 080°42'1110.6
2015-May-02 23:33N 31°51' W 080°37'1312.1
2015-May-02 22:29N 31°40' W 080°30'33211.8
2015-May-01 18:29N 26°13' W 079°25'1212.9
2015-May-01 17:34N 26°01' W 079°26'  
Track history (hours):
 
Tides and Currents Weather Stations Pressure Air Temp Water Temp Dewpoint Dewpoint Depression Visibility Wind Speed Wind Dir Waves Ship Positions

Clipper Titan

Last reported at 2015-May-09 04:33 UTC. Time now 2015-May-27 19:54 UTC.
Position N 25°46' W 079°29'.
Warning: this ship's position is 18 days out of date.

; draft 6 m.

Type: Cargo ship. MMSI: 311008200.

Date/timePositionNaut miles runAvg speedWind from/ knotsBaromVisibWave heightAir tempDewpointWater temp
2015-May-09 04:33N 25°46' W 079°29'9 8.7
2015-May-09 03:33N 25°55' W 079°30'9 8.6
2015-May-09 02:33N 26°04' W 079°28'9 8.7
2015-May-09 01:33N 26°12' W 079°25'9 9.1
2015-May-09 00:33N 26°21' W 079°24'40 9.7
2015-May-08 20:26N 27°01' W 079°20'9 9.9
2015-May-08 19:33N 27°09' W 079°19'1010.0
2015-May-08 18:33N 27°19' W 079°18'1010.3
2015-May-08 17:33N 27°30' W 079°17'279 9.3
2015-May-07 11:33N 31°58' W 080°44'1111.4
2015-May-07 10:34N 32°03' W 080°56'9 9.2
2015-May-07 09:33N 32°06' W 081°06'4 3.3
2015-May-07 08:29N 32°09' W 081°09'0 0.0
2015-May-07 07:32N 32°09' W 081°09'0 0.0
2015-May-07 06:32N 32°09' W 081°09'0 0.0
2015-May-07 05:32N 32°09' W 081°09'0 0.0
2015-May-07 04:32N 32°09' W 081°09'0 0.0
2015-May-07 03:32N 32°09' W 081°09'0 0.0
2015-May-07 02:32N 32°09' W 081°09'0 0.0
2015-May-07 01:32N 32°09' W 081°09'0 0.0
2015-May-07 00:32N 32°09' W 081°09'0 0.0
2015-May-06 23:32N 32°09' W 081°09'0 0.0
2015-May-06 22:32N 32°09' W 081°09'0 0.0
2015-May-06 21:32N 32°09' W 081°09'0 0.0
2015-May-06 20:32N 32°09' W 081°09'0 0.0
2015-May-06 19:32N 32°09' W 081°09'0 0.0
2015-May-06 18:32N 32°09' W 081°09'0 0.0
2015-May-06 17:32N 32°09' W 081°09'0 0.0
2015-May-06 16:32N 32°09' W 081°09'0 0.0
2015-May-06 15:32N 32°09' W 081°09'0 0.0
2015-May-06 14:32N 32°09' W 081°09'0 0.0
2015-May-06 13:32N 32°09' W 081°09'0 0.0
2015-May-06 12:32N 32°09' W 081°09'0 0.0
2015-May-06 11:32N 32°09' W 081°09'0 0.0
2015-May-06 10:32N 32°09' W 081°09'0 0.0
2015-May-06 09:32N 32°09' W 081°09'0 0.0
2015-May-06 08:32N 32°09' W 081°09'0 0.0
2015-May-06 07:32N 32°09' W 081°09'0 0.0
2015-May-06 06:32N 32°09' W 081°09'0 0.0
2015-May-06 05:32N 32°09' W 081°09'0 0.0
2015-May-06 04:32N 32°09' W 081°09'0 0.0
2015-May-06 03:32N 32°09' W 081°09'0 0.0
2015-May-06 02:32N 32°09' W 081°09'0 0.0
2015-May-06 01:32N 32°09' W 081°09'0 0.0
2015-May-06 00:32N 32°09' W 081°09'0 0.0
2015-May-05 23:32N 32°09' W 081°09'0 0.0
2015-May-05 22:32N 32°09' W 081°09'0 0.0
2015-May-05 21:32N 32°09' W 081°09'0 0.0
2015-May-05 20:29N 32°09' W 081°09'0 0.0
2015-May-05 19:32N 32°09' W 081°09'0 0.0
2015-May-05 18:32N 32°09' W 081°09'0 0.0
2015-May-05 17:32N 32°09' W 081°09'0 0.0
2015-May-05 16:32N 32°09' W 081°09'0 0.0
2015-May-05 15:32N 32°09' W 081°09'0 0.0
2015-May-05 14:32N 32°09' W 081°09'0 0.0
2015-May-05 13:32N 32°09' W 081°09'0 0.0
2015-May-05 12:32N 32°09' W 081°09'0 0.0
2015-May-05 11:32N 32°09' W 081°09'0 0.0
2015-May-05 10:32N 32°09' W 081°09'0 0.0
2015-May-05 09:29N 32°09' W 081°09'0 0.0
2015-May-05 08:29N 32°09' W 081°09'0 0.0
2015-May-05 07:32N 32°09' W 081°09'0 0.0
2015-May-05 06:32N 32°09' W 081°09'0 0.0
2015-May-05 05:26N 32°09' W 081°09'0 0.0
2015-May-05 04:29N 32°09' W 081°09'0 0.0
2015-May-05 03:32N 32°09' W 081°09'0 0.0
2015-May-05 02:32N 32°09' W 081°09'0 0.0
2015-May-05 01:32N 32°09' W 081°09'0 0.0
2015-May-05 00:32N 32°09' W 081°09'0 0.0
2015-May-04 23:32N 32°09' W 081°09'0 0.0
2015-May-04 22:32N 32°09' W 081°09'0 0.0
2015-May-04 21:32N 32°09' W 081°09'0 0.0
2015-May-04 20:32N 32°09' W 081°09'0 0.0
2015-May-04 19:32N 32°09' W 081°09'0 0.0
2015-May-04 18:32N 32°09' W 081°09'0 0.0
2015-May-04 17:32N 32°09' W 081°09'0 0.0
2015-May-04 16:32N 32°09' W 081°09'0 0.0
2015-May-04 15:32N 32°09' W 081°09'0 0.0
2015-May-04 14:32N 32°09' W 081°09'0 0.0
2015-May-04 13:32N 32°09' W 081°09'0 0.0
2015-May-04 12:32N 32°09' W 081°09'0 0.0
2015-May-04 11:32N 32°09' W 081°09'0 0.0
2015-May-04 10:32N 32°09' W 081°09'0 0.0
2015-May-04 09:32N 32°09' W 081°09'1 1.4
2015-May-04 08:34N 32°07' W 081°08'7 6.5
2015-May-04 07:33N 32°06' W 081°00'9 9.1
2015-May-04 06:33N 32°02' W 080°51'7 6.6
2015-May-04 05:33N 32°01' W 080°43'0 0.4
2015-May-04 04:33N 32°01' W 080°43'0 0.0
2015-May-04 03:33N 32°01' W 080°43'0 0.1
2015-May-04 02:33N 32°01' W 080°43'0 0.1
2015-May-04 01:33N 32°01' W 080°43'0 0.1
2015-May-04 00:33N 32°01' W 080°43'0 0.0
2015-May-03 23:33N 32°01' W 080°43'0 0.0
2015-May-03 22:33N 32°01' W 080°43'0 0.0
2015-May-03 21:33N 32°01' W 080°43'0 0.0
2015-May-03 20:33N 32°01' W 080°43'0 0.0
2015-May-03 19:30N 32°01' W 080°43'0 0.1
2015-May-03 18:33N 32°01' W 080°43'0 0.1
2015-May-03 17:33N 32°01' W 080°43'0 0.0
2015-May-03 16:33N 32°01' W 080°43'0 0.0
2015-May-03 15:33N 32°01' W 080°43'0 0.0
2015-May-03 14:33N 32°01' W 080°43'0 0.1
2015-May-03 13:30N 32°01' W 080°43'0 0.1
2015-May-03 12:33N 32°01' W 080°43'0 0.0
2015-May-03 11:33N 32°01' W 080°43'0 0.0
2015-May-03 10:33N 32°01' W 080°43'0 0.0
2015-May-03 09:33N 32°01' W 080°43'0 0.0
2015-May-03 08:33N 32°01' W 080°43'0 0.2
2015-May-03 07:33N 32°01' W 080°43'0 0.1
2015-May-03 06:33N 32°01' W 080°43'0 0.0
2015-May-03 05:33N 32°01' W 080°43'0 0.0
2015-May-03 04:33N 32°01' W 080°43'0 0.0
2015-May-03 03:33N 32°01' W 080°43'0 0.0
2015-May-03 02:33N 32°01' W 080°43'0 0.0
2015-May-03 01:33N 32°01' W 080°43'1 0.7
2015-May-03 00:33N 32°01' W 080°42'1110.6
2015-May-02 23:33N 31°51' W 080°37'1312.1
2015-May-02 22:29N 31°40' W 080°30'33211.8
2015-May-01 18:29N 26°13' W 079°25'1212.9
2015-May-01 17:34N 26°01' W 079°26'  

Dump ship's entire track history